Time;durP1;ratioP1;P1;durP2;ratioP2;P2;SDS_P1;SDS_P2;PMS_P1;PMS_P2;Temp;Humidity;BMP_temperature;BMP_pressure;BME280_temperature;BME280_humidity;BME280_pressure;Samples;Min_cycle;Max_cycle;Signal;HPM_P1;HPM_P2
2022/07/07 00:01:59;;;;;;;4.70;1.95;;;14.10;99.90;;;;;;2585669;54;22433;31
2022/07/07 00:04:34;;;;;;;4.32;2.88;;;14.10;99.90;;;;;;2585489;54;20048;31
2022/07/07 00:07:08;;;;;;;4.70;2.45;;;14.00;99.90;;;;;;2683314;39;22361;31
2022/07/07 00:09:44;;;;;;;4.20;2.40;;;14.10;99.90;;;;;;2585549;54;20026;31
2022/07/07 00:12:22;;;;;;;5.47;2.40;;;14.10;99.90;;;;;;2683044;39;20658;31
2022/07/07 00:14:58;;;;;;;5.72;2.15;;;14.00;99.90;;;;;;2585239;54;20242;31
2022/07/07 00:17:37;;;;;;;4.10;2.15;;;14.00;99.90;;;;;;2603645;47;20913;31
2022/07/07 00:20:13;;;;;;;5.88;2.30;;;13.90;99.90;;;;;;2585118;54;21008;31
2022/07/07 00:22:50;;;;;;;3.50;1.50;;;14.00;99.90;;;;;;2585794;54;19958;31
2022/07/07 00:25:30;;;;;;;7.15;2.50;;;13.90;99.90;;;;;;2585910;54;20980;31
2022/07/07 00:28:03;;;;;;;5.00;2.80;;;14.00;99.90;;;;;;2604680;46;20964;31
2022/07/07 00:30:46;;;;;;;7.00;2.47;;;13.90;99.90;;;;;;2586037;54;20764;31
2022/07/07 00:33:24;;;;;;;4.85;2.45;;;13.90;99.90;;;;;;2586031;54;20027;31
2022/07/07 00:35:56;;;;;;;4.10;2.22;;;13.90;99.90;;;;;;2585782;54;20898;31
2022/07/07 00:38:31;;;;;;;4.20;2.10;;;13.90;99.90;;;;;;2585087;54;20928;31
2022/07/07 00:41:09;;;;;;;3.03;2.03;;;13.90;99.90;;;;;;2585904;54;20030;31
2022/07/07 00:43:43;;;;;;;3.45;2.10;;;13.90;99.90;;;;;;2604133;46;20929;31
2022/07/07 00:46:22;;;;;;;3.97;2.20;;;13.90;99.90;;;;;;2586154;54;20027;31
2022/07/07 00:48:58;;;;;;;4.38;2.17;;;13.90;99.90;;;;;;2586172;54;20073;31
2022/07/07 00:51:35;;;;;;;3.38;1.67;;;13.80;99.90;;;;;;2585902;54;21001;31
2022/07/07 00:54:10;;;;;;;6.23;3.00;;;13.90;99.90;;;;;;2585228;54;20030;31
2022/07/07 00:56:45;;;;;;;7.50;2.80;;;13.90;99.90;;;;;;2604126;46;21132;31
2022/07/07 00:59:40;;;;;;;4.88;2.83;;;13.90;99.90;;;;;;2586047;54;20026;31
2022/07/07 01:02:22;;;;;;;6.13;2.78;;;13.90;99.90;;;;;;2585936;54;20038;31
2022/07/07 01:05:02;;;;;;;5.38;1.98;;;13.80;99.90;;;;;;2585895;54;20034;31
2022/07/07 01:07:36;;;;;;;4.80;2.33;;;13.80;99.90;;;;;;2596456;46;20085;31
2022/07/07 01:10:14;;;;;;;3.67;1.85;;;13.80;99.90;;;;;;2585636;54;20031;31
2022/07/07 01:12:49;;;;;;;7.40;2.45;;;13.80;99.90;;;;;;2584860;54;20034;31
2022/07/07 01:15:25;;;;;;;4.70;2.30;;;13.80;99.90;;;;;;2584975;54;20041;31
2022/07/07 01:18:03;;;;;;;3.67;1.88;;;13.80;99.90;;;;;;2604317;46;20054;31
2022/07/07 01:20:41;;;;;;;3.73;2.23;;;13.80;99.90;;;;;;2586077;54;20057;31
2022/07/07 01:23:21;;;;;;;4.90;2.80;;;13.80;99.90;;;;;;2585643;54;21127;31
2022/07/07 01:25:57;;;;;;;4.00;2.20;;;13.80;99.90;;;;;;2585736;54;20057;31
2022/07/07 01:28:33;;;;;;;6.40;2.60;;;13.80;99.90;;;;;;2585905;54;20942;31
2022/07/07 01:31:11;;;;;;;3.40;2.30;;;13.80;99.90;;;;;;2754925;31;21229;31
2022/07/07 01:33:45;;;;;;;3.30;2.20;;;13.80;99.90;;;;;;2585519;54;20030;31
2022/07/07 01:36:19;;;;;;;4.25;2.47;;;13.80;99.90;;;;;;2585573;54;20971;31
2022/07/07 01:38:58;;;;;;;2.90;1.73;;;13.80;99.90;;;;;;2604446;46;21064;31
2022/07/07 01:41:32;;;;;;;4.80;1.98;;;13.70;99.90;;;;;;2604393;46;20885;31
2022/07/07 01:44:07;;;;;;;3.93;1.73;;;13.80;99.90;;;;;;2585800;54;21814;31
2022/07/07 01:46:43;;;;;;;3.63;2.05;;;13.80;99.90;;;;;;2585823;54;20955;31
2022/07/07 01:49:17;;;;;;;4.95;2.00;;;13.80;99.90;;;;;;2702480;39;22302;31
2022/07/07 01:51:52;;;;;;;4.40;2.60;;;13.80;99.90;;;;;;2585729;54;20034;31
2022/07/07 01:54:31;;;;;;;3.30;2.20;;;13.80;99.90;;;;;;2585799;54;21438;31
2022/07/07 01:57:06;;;;;;;6.30;2.80;;;13.80;99.90;;;;;;2585652;54;21064;31
2022/07/07 01:59:40;;;;;;;8.75;2.47;;;13.70;99.90;;;;;;2585756;54;20037;31
2022/07/07 02:02:17;;;;;;;4.00;2.65;;;13.70;99.90;;;;;;2584807;54;20026;31
2022/07/07 02:04:52;;;;;;;4.72;2.40;;;13.70;99.90;;;;;;2596472;46;20927;31
2022/07/07 02:07:27;;;;;;;4.63;2.30;;;13.80;99.90;;;;;;2603145;46;20030;31
2022/07/07 02:10:11;;;;;;;7.70;2.70;;;13.80;99.90;;;;;;2584711;54;21548;31
2022/07/07 02:12:45;;;;;;;6.65;3.03;;;13.80;99.90;;;;;;2585414;54;20050;31
2022/07/07 02:15:21;;;;;;;6.23;2.93;;;13.80;99.90;;;;;;2584743;54;20883;31
2022/07/07 02:17:55;;;;;;;3.77;2.63;;;13.80;99.90;;;;;;2585817;54;20116;31
2022/07/07 02:20:32;;;;;;;4.85;2.40;;;13.80;99.90;;;;;;2585027;54;20049;31
2022/07/07 02:23:06;;;;;;;6.45;2.70;;;13.80;99.90;;;;;;2585505;54;20034;31
2022/07/07 02:25:43;;;;;;;3.45;2.47;;;13.80;99.90;;;;;;2585618;54;20089;31
2022/07/07 02:28:20;;;;;;;5.40;2.75;;;13.90;99.90;;;;;;2585595;54;20026;31
2022/07/07 02:30:55;;;;;;;10.03;3.53;;;13.90;99.90;;;;;;2585648;54;20875;31
2022/07/07 02:33:32;;;;;;;5.33;2.83;;;13.90;99.90;;;;;;2585732;54;20037;31
2022/07/07 02:36:09;;;;;;;4.78;3.00;;;13.80;99.90;;;;;;2585564;54;20322;31
2022/07/07 02:38:45;;;;;;;6.93;2.53;;;13.90;99.90;;;;;;2585556;54;20885;31
2022/07/07 02:41:25;;;;;;;6.10;3.40;;;13.90;99.90;;;;;;2585886;54;20709;31
2022/07/07 02:44:02;;;;;;;4.83;2.70;;;13.90;99.90;;;;;;2590839;46;20093;31
2022/07/07 02:46:38;;;;;;;4.10;2.75;;;13.90;99.90;;;;;;2584699;54;20035;31
2022/07/07 02:49:13;;;;;;;7.07;2.97;;;13.90;99.90;;;;;;2585496;54;20915;31
2022/07/07 02:51:49;;;;;;;8.60;2.83;;;14.00;99.90;;;;;;2585536;54;20998;31
2022/07/07 02:54:23;;;;;;;6.72;2.90;;;13.90;99.90;;;;;;2585497;54;19939;31
2022/07/07 02:57:01;;;;;;;5.07;2.53;;;13.90;99.90;;;;;;2584631;54;20038;31
2022/07/07 02:59:36;;;;;;;5.07;2.90;;;14.10;99.90;;;;;;2585645;54;20030;31
2022/07/07 03:02:14;;;;;;;4.80;3.03;;;14.00;99.90;;;;;;2603943;46;20032;31
2022/07/07 03:04:52;;;;;;;7.00;3.00;;;14.00;99.90;;;;;;2585363;54;20031;31
2022/07/07 03:07:26;;;;;;;3.95;2.70;;;14.10;99.90;;;;;;2585495;54;20061;31
2022/07/07 03:10:01;;;;;;;6.53;3.45;;;14.00;99.90;;;;;;2585330;54;20033;31
2022/07/07 03:12:40;;;;;;;5.47;3.10;;;14.00;99.90;;;;;;2585440;54;20101;31
2022/07/07 03:15:14;;;;;;;7.50;3.55;;;14.00;99.90;;;;;;2585152;54;20027;31
2022/07/07 03:17:52;;;;;;;5.63;2.97;;;14.00;99.90;;;;;;2585624;54;20034;31
2022/07/07 03:20:24;;;;;;;6.35;2.65;;;14.00;99.90;;;;;;2585139;54;21392;31
2022/07/07 03:23:00;;;;;;;4.35;2.67;;;14.10;99.90;;;;;;2585314;54;20030;31
2022/07/07 03:25:36;;;;;;;5.70;3.50;;;14.10;99.90;;;;;;2585537;54;20054;31
2022/07/07 03:28:13;;;;;;;7.78;4.20;;;14.10;99.90;;;;;;2584842;54;22524;31
2022/07/07 03:30:48;;;;;;;5.70;3.73;;;14.10;99.90;;;;;;2683607;39;22296;31
2022/07/07 03:33:24;;;;;;;8.32;3.53;;;14.00;99.90;;;;;;2585426;54;20026;31
2022/07/07 03:36:02;;;;;;;8.35;3.92;;;14.10;99.90;;;;;;2585592;54;20874;31
2022/07/07 03:38:38;;;;;;;5.57;3.17;;;14.10;99.90;;;;;;2585624;54;20776;31
2022/07/07 03:41:16;;;;;;;7.00;3.50;;;14.10;99.90;;;;;;2603620;46;20027;31
2022/07/07 03:43:55;;;;;;;5.90;3.20;;;14.10;99.90;;;;;;2584706;54;21148;31
2022/07/07 03:46:31;;;;;;;6.75;3.83;;;14.20;99.90;;;;;;2584646;54;20042;31
2022/07/07 03:49:09;;;;;;;10.73;4.75;;;14.20;99.90;;;;;;2585510;54;20030;31
2022/07/07 03:51:43;;;;;;;7.73;3.60;;;14.20;99.90;;;;;;2585328;54;20022;31
2022/07/07 03:54:23;;;;;;;8.90;4.10;;;14.30;99.90;;;;;;2682589;39;21685;31
2022/07/07 03:57:01;;;;;;;7.90;4.90;;;14.40;99.90;;;;;;2585540;54;20093;31
2022/07/07 03:59:39;;;;;;;8.15;3.97;;;14.30;99.90;;;;;;2585078;54;20956;31
2022/07/07 04:02:15;;;;;;;9.53;4.73;;;14.40;99.90;;;;;;2585226;54;20845;31
2022/07/07 04:04:49;;;;;;;9.55;5.15;;;14.40;99.90;;;;;;2585361;54;19931;31
2022/07/07 04:07:26;;;;;;;7.40;3.90;;;14.40;99.90;;;;;;2586008;54;20073;31
2022/07/07 04:10:02;;;;;;;8.38;4.38;;;14.50;99.90;;;;;;2585942;54;21798;31
2022/07/07 04:12:39;;;;;;;6.40;4.25;;;14.60;99.90;;;;;;2586022;54;20053;31
2022/07/07 04:15:17;;;;;;;11.30;5.20;;;14.60;99.90;;;;;;2604530;46;20819;31
2022/07/07 04:17:53;;;;;;;8.07;4.75;;;14.70;99.90;;;;;;2586177;54;20032;31
2022/07/07 04:20:29;;;;;;;9.00;5.20;;;14.70;99.90;;;;;;2586257;54;20033;31
2022/07/07 04:23:08;;;;;;;10.18;4.85;;;14.70;99.90;;;;;;2586002;54;21109;31
2022/07/07 04:25:47;;;;;;;10.38;4.70;;;14.80;99.90;;;;;;2589760;46;20852;31
2022/07/07 04:28:25;;;;;;;11.93;4.95;;;14.70;99.90;;;;;;2584643;54;21428;31
2022/07/07 04:31:04;;;;;;;7.45;3.60;;;14.80;99.90;;;;;;2682896;39;20470;31
2022/07/07 04:33:42;;;;;;;8.98;4.15;;;14.80;99.90;;;;;;2585031;54;20942;31
2022/07/07 04:36:20;;;;;;;8.00;4.00;;;14.90;99.90;;;;;;2586172;54;20780;31
2022/07/07 04:38:56;;;;;;;11.00;4.40;;;14.90;99.90;;;;;;2586518;54;22665;31
2022/07/07 04:41:30;;;;;;;12.50;5.35;;;14.90;99.90;;;;;;2754239;31;26129;31
2022/07/07 04:44:08;;;;;;;7.22;4.03;;;15.00;99.90;;;;;;2586108;54;20026;31
2022/07/07 04:46:45;;;;;;;8.97;4.50;;;15.00;99.90;;;;;;2584871;54;20145;31
2022/07/07 04:49:21;;;;;;;6.45;3.85;;;15.20;99.90;;;;;;2585947;54;20026;31
2022/07/07 04:52:00;;;;;;;8.65;4.22;;;15.30;99.90;;;;;;2585751;54;20039;31
2022/07/07 04:54:38;;;;;;;9.75;4.60;;;15.20;99.90;;;;;;2586002;54;20949;31
2022/07/07 04:57:14;;;;;;;7.25;4.18;;;15.30;99.90;;;;;;2585775;54;20038;31
2022/07/07 04:59:51;;;;;;;9.40;4.15;;;15.40;99.90;;;;;;2585931;54;20133;31
2022/07/07 05:02:30;;;;;;;7.78;4.57;;;15.50;99.90;;;;;;2585956;54;20812;31
2022/07/07 05:05:06;;;;;;;8.43;4.40;;;15.70;99.90;;;;;;2586055;54;20053;31
2022/07/07 05:07:41;;;;;;;8.80;4.53;;;15.80;99.90;;;;;;2585939;54;20030;31
2022/07/07 05:10:15;;;;;;;7.30;4.37;;;15.90;99.90;;;;;;2683797;39;21427;31
2022/07/07 05:12:52;;;;;;;7.43;3.33;;;16.00;99.90;;;;;;2600152;46;21250;31
2022/07/07 05:15:26;;;;;;;6.70;3.50;;;16.10;99.90;;;;;;2585135;54;21272;31
2022/07/07 05:18:04;;;;;;;10.25;3.35;;;16.30;99.90;;;;;;2585755;54;20897;31
2022/07/07 05:20:39;;;;;;;5.63;3.22;;;16.40;99.90;;;;;;2584938;54;20077;31
2022/07/07 05:23:14;;;;;;;8.30;3.70;;;16.50;99.90;;;;;;2585058;54;20773;31
2022/07/07 05:25:51;;;;;;;7.57;3.00;;;16.60;99.90;;;;;;2585023;54;21231;31
2022/07/07 05:28:28;;;;;;;5.60;3.00;;;16.80;99.90;;;;;;2585996;54;20405;31
2022/07/07 05:31:02;;;;;;;7.35;2.83;;;16.80;99.90;;;;;;2585838;54;19935;31
2022/07/07 05:33:42;;;;;;;6.45;3.20;;;16.90;99.90;;;;;;2585937;54;20085;31
2022/07/07 05:36:18;;;;;;;16.90;4.10;;;17.00;99.90;;;;;;2584815;54;20034;31
2022/07/07 05:38:53;;;;;;;;;;;17.00;99.90;;;;;;2586111;54;20022;31
2022/07/07 05:41:27;;;;;;;9.27;2.92;;;17.10;99.90;;;;;;2584821;54;19946;31
2022/07/07 05:44:00;;;;;;;9.20;3.30;;;17.20;99.90;;;;;;2585840;54;20492;31
2022/07/07 05:46:35;;;;;;;7.15;3.65;;;17.10;99.90;;;;;;2701543;39;21592;31
2022/07/07 05:49:13;;;;;;;6.28;3.33;;;17.20;99.90;;;;;;2585510;54;20104;31
2022/07/07 05:51:49;;;;;;;5.68;2.88;;;17.30;99.90;;;;;;2584668;54;20053;31
2022/07/07 05:54:23;;;;;;;4.95;2.90;;;17.40;99.90;;;;;;2585684;54;20034;31
2022/07/07 05:56:58;;;;;;;7.60;3.08;;;17.40;99.90;;;;;;2585928;54;20939;31
2022/07/07 05:59:35;;;;;;;;;;;17.60;99.90;;;;;;2585815;54;20030;31
2022/07/07 06:02:09;;;;;;;6.78;2.92;;;17.60;99.90;;;;;;2585512;54;20735;31
2022/07/07 06:04:47;;;;;;;3.80;2.47;;;17.70;99.90;;;;;;2584700;54;20908;31
2022/07/07 06:07:31;;;;;;;8.70;3.20;;;17.70;99.90;;;;;;2604041;46;20038;31
2022/07/07 06:10:10;;;;;;;8.63;3.80;;;17.80;99.90;;;;;;2585541;54;20123;31
2022/07/07 06:12:45;;;;;;;7.50;3.10;;;17.90;99.90;;;;;;2585535;54;20800;31
2022/07/07 06:15:20;;;;;;;5.97;2.97;;;17.90;99.90;;;;;;2584860;54;21969;31
2022/07/07 06:17:56;;;;;;;9.40;2.95;;;17.90;99.90;;;;;;2584849;54;20030;31
2022/07/07 06:20:48;;;;;;;5.22;2.78;;;18.00;99.90;;;;;;2603501;46;20026;31
2022/07/07 06:23:27;;;;;;;4.73;2.27;;;18.20;99.90;;;;;;2584721;54;19996;31
2022/07/07 06:26:03;;;;;;;5.20;2.83;;;18.70;99.90;;;;;;2584609;54;20031;31
2022/07/07 06:28:38;;;;;;;9.13;2.77;;;19.10;99.90;;;;;;2585684;54;20891;31
2022/07/07 06:31:16;;;;;;;6.15;2.47;;;19.50;99.90;;;;;;2585703;54;21243;31
2022/07/07 06:33:51;;;;;;;8.23;2.67;;;19.90;99.90;;;;;;2603683;46;20026;31
2022/07/07 06:36:29;;;;;;;4.33;2.57;;;20.30;99.90;;;;;;2585642;54;20834;31
2022/07/07 06:39:05;;;;;;;5.67;2.37;;;20.80;99.90;;;;;;2604116;46;20242;31
2022/07/07 06:41:40;;;;;;;;;;;21.20;99.90;;;;;;2584938;54;21232;31
2022/07/07 06:44:17;;;;;;;8.17;2.70;;;21.40;99.90;;;;;;2584663;54;19989;31
2022/07/07 06:46:54;;;;;;;8.20;2.55;;;21.70;99.90;;;;;;2584533;54;21923;31
2022/07/07 06:49:29;;;;;;;11.23;2.90;;;21.80;99.90;;;;;;2584553;54;20100;31
2022/07/07 06:52:07;;;;;;;10.77;4.45;;;22.00;99.90;;;;;;2584521;54;20030;31
2022/07/07 06:54:43;;;;;;;7.57;3.30;;;22.10;99.90;;;;;;2585572;54;20026;31
2022/07/07 06:57:21;;;;;;;9.20;3.35;;;22.30;99.90;;;;;;2584353;54;20896;31
2022/07/07 06:59:55;;;;;;;4.03;2.80;;;22.60;99.90;;;;;;2584860;54;20049;31
2022/07/07 07:02:31;;;;;;;8.60;3.40;;;22.60;99.90;;;;;;2584469;54;21019;31
2022/07/07 07:05:05;;;;;;;6.97;2.40;;;22.60;99.90;;;;;;2584855;54;22421;31
2022/07/07 07:07:42;;;;;;;6.20;1.80;;;22.50;99.90;;;;;;2584709;54;21900;31
2022/07/07 07:10:16;;;;;;;6.25;2.15;;;22.50;99.90;;;;;;2585697;54;22349;31
2022/07/07 07:12:49;;;;;;;7.05;1.40;;;22.50;99.90;;;;;;2702123;39;22509;31
2022/07/07 07:15:25;;;;;;;4.15;1.10;;;22.40;99.90;;;;;;2585297;54;20116;31
2022/07/07 07:18:06;;;;;;;6.33;1.17;;;22.40;99.90;;;;;;2603498;46;20538;31
2022/07/07 07:20:41;;;;;;;6.20;1.60;;;22.40;99.90;;;;;;2584419;54;20026;31
2022/07/07 07:23:18;;;;;;;3.90;1.30;;;22.60;99.90;;;;;;2585328;54;21321;31
2022/07/07 07:25:54;;;;;;;3.43;1.20;;;22.80;99.90;;;;;;2585302;54;21010;31
2022/07/07 07:28:30;;;;;;;7.13;0.90;;;23.10;99.90;;;;;;2584422;54;20030;31
2022/07/07 07:31:03;;;;;;;2.45;1.20;;;23.30;99.90;;;;;;2585185;54;21189;31
2022/07/07 07:33:38;;;;;;;2.55;0.80;;;23.60;99.90;;;;;;2603674;46;20960;31
2022/07/07 07:36:14;;;;;;;6.75;0.90;;;23.70;99.90;;;;;;2585359;54;20053;31
2022/07/07 07:38:52;;;;;;;5.00;0.80;;;23.80;99.90;;;;;;2585246;54;20080;31
2022/07/07 07:41:29;;;;;;;4.15;1.10;;;23.90;99.90;;;;;;2585334;54;20836;31
2022/07/07 07:44:06;;;;;;;7.72;1.42;;;24.00;99.90;;;;;;2585086;54;20907;31
2022/07/07 07:46:42;;;;;;;5.40;1.30;;;24.10;99.90;;;;;;2585189;54;20921;31
2022/07/07 07:49:20;;;;;;;4.13;1.10;;;24.10;99.90;;;;;;2584347;54;19942;31
2022/07/07 07:51:55;;;;;;;6.57;1.00;;;24.20;99.90;;;;;;2584549;54;20883;31
2022/07/07 07:54:39;;;;;;;4.90;1.00;;;24.10;99.90;;;;;;2585223;54;20792;31
2022/07/07 07:57:13;;;;;;;1.80;0.60;;;24.20;99.80;;;;;;2603599;47;20818;31
2022/07/07 07:59:52;;;;;;;4.93;0.77;;;24.30;99.90;;;;;;2683315;39;21050;31
2022/07/07 08:02:25;;;;;;;1.45;0.60;;;24.40;98.90;;;;;;2585300;54;20891;31
2022/07/07 08:05:03;;;;;;;2.33;0.93;;;24.40;99.30;;;;;;2585512;54;20948;31
2022/07/07 08:07:37;;;;;;;4.55;0.85;;;24.40;99.40;;;;;;2585016;54;20897;31
2022/07/07 08:10:16;;;;;;;4.00;0.70;;;24.50;98.70;;;;;;2603800;47;22453;31
2022/07/07 08:12:55;;;;;;;2.73;0.70;;;24.40;98.80;;;;;;2585378;54;20040;31
2022/07/07 08:15:29;;;;;;;1.90;0.70;;;24.40;98.80;;;;;;2585046;54;20831;31
2022/07/07 08:18:04;;;;;;;4.07;1.13;;;24.60;98.10;;;;;;2585187;54;20030;31
2022/07/07 08:20:40;;;;;;;5.90;1.13;;;24.90;98.90;;;;;;2584984;54;20891;31
2022/07/07 08:23:16;;;;;;;4.55;0.70;;;25.30;96.70;;;;;;2595934;47;21149;31
2022/07/07 08:25:53;;;;;;;2.88;0.68;;;25.50;97.20;;;;;;2584479;54;20054;31
2022/07/07 08:28:39;;;;;;;3.10;0.83;;;25.70;96.40;;;;;;2584679;54;20154;31
2022/07/07 08:31:15;;;;;;;6.63;0.70;;;25.70;96.60;;;;;;2585002;54;21228;31
2022/07/07 08:33:53;;;;;;;1.95;0.50;;;25.80;95.50;;;;;;2584298;54;20052;31
2022/07/07 08:36:30;;;;;;;4.40;0.70;;;25.90;95.00;;;;;;2585202;54;20804;31
2022/07/07 08:39:07;;;;;;;2.70;0.40;;;26.20;94.10;;;;;;2584607;54;20031;31
2022/07/07 08:44:18;;;;;;;3.50;0.40;;;26.50;93.20;;;;;;2584897;54;20041;31
2022/07/07 08:46:57;;;;;;;2.13;0.40;;;26.30;91.30;;;;;;2585773;54;19960;31
2022/07/07 08:49:32;;;;;;;2.17;0.57;;;26.10;91.70;;;;;;2584736;54;21007;31
2022/07/07 08:52:08;;;;;;;2.65;0.50;;;26.10;91.40;;;;;;2600412;46;21012;31
2022/07/07 08:54:42;;;;;;;2.75;0.50;;;26.00;90.90;;;;;;2585815;54;20920;31
2022/07/07 08:57:17;;;;;;;5.75;0.40;;;25.90;89.80;;;;;;2683887;39;22314;31
2022/07/07 08:59:58;;;;;;;3.60;0.60;;;26.00;89.70;;;;;;2584802;54;20924;31
2022/07/07 09:02:35;;;;;;;2.25;0.40;;;26.20;89.80;;;;;;2584754;54;20795;31
2022/07/07 09:05:11;;;;;;;2.40;0.40;;;26.50;89.70;;;;;;2600994;46;20781;31
2022/07/07 09:07:49;;;;;;;2.40;0.35;;;26.80;90.80;;;;;;2584766;54;20034;31
2022/07/07 09:10:31;;;;;;;2.33;0.40;;;27.00;89.70;;;;;;2591714;46;20030;31
2022/07/07 09:13:04;;;;;;;3.03;0.35;;;27.40;89.80;;;;;;2593306;46;20933;31
2022/07/07 09:15:43;;;;;;;2.85;0.60;;;27.40;85.90;;;;;;2584876;54;20897;31
2022/07/07 09:18:20;;;;;;;1.83;0.40;;;27.30;87.80;;;;;;2584742;54;20061;31
2022/07/07 09:20:56;;;;;;;0.63;0.30;;;27.30;86.10;;;;;;2585142;54;20939;31
2022/07/07 09:23:32;;;;;;;1.30;0.50;;;27.20;86.40;;;;;;2585414;54;20926;31
2022/07/07 09:26:07;;;;;;;2.60;0.40;;;27.30;85.00;;;;;;2585537;54;20918;31
2022/07/07 09:28:45;;;;;;;1.23;0.38;;;27.30;85.40;;;;;;2585391;54;20938;31
2022/07/07 09:31:25;;;;;;;0.90;0.40;;;27.00;84.70;;;;;;2585524;54;20045;31
2022/07/07 09:33:58;;;;;;;3.15;0.55;;;26.70;86.20;;;;;;2585648;54;20954;31
2022/07/07 09:39:46;;;;;;;1.55;0.50;;;26.70;86.20;;;;;;2585011;54;21224;31
2022/07/07 09:42:41;;;;;;;2.25;0.20;;;26.70;84.60;;;;;;2585725;54;20834;31
2022/07/07 09:45:15;;;;;;;1.73;0.32;;;26.90;83.80;;;;;;2754128;31;20541;31
2022/07/07 09:47:51;;;;;;;4.15;0.45;;;26.70;84.00;;;;;;2585405;54;20034;31
2022/07/07 09:50:26;;;;;;;1.70;0.20;;;26.70;85.60;;;;;;2585329;54;20036;31
2022/07/07 09:52:59;;;;;;;1.50;0.40;;;26.80;83.20;;;;;;2585719;54;21899;31
2022/07/07 09:55:36;;;;;;;1.55;0.30;;;27.00;83.80;;;;;;2585328;54;20026;31
2022/07/07 09:58:14;;;;;;;2.77;0.67;;;27.20;87.50;;;;;;2603968;46;20811;31
2022/07/07 10:00:49;;;;;;;3.83;0.40;;;27.40;85.80;;;;;;2585401;54;20969;31
2022/07/07 10:03:28;;;;;;;2.65;0.43;;;27.40;86.00;;;;;;2585527;54;20148;31
2022/07/07 10:06:03;;;;;;;5.55;0.70;;;27.30;85.30;;;;;;2584526;54;20227;31
2022/07/07 10:08:37;;;;;;;3.38;0.40;;;27.10;89.10;;;;;;2585407;54;20031;31
2022/07/07 10:11:11;;;;;;;6.07;0.65;;;26.90;87.80;;;;;;2701269;39;20523;31
2022/07/07 10:13:46;;;;;;;2.50;0.50;;;26.70;89.40;;;;;;2584877;54;20899;31
2022/07/07 10:16:20;;;;;;;4.18;0.77;;;26.40;89.40;;;;;;2585231;54;20026;31
2022/07/07 10:18:57;;;;;;;2.90;0.30;;;26.10;89.70;;;;;;2683297;39;21061;31
2022/07/07 10:21:31;;;;;;;;;;;25.90;90.30;;;;;;2585391;54;21150;31
2022/07/07 10:24:14;;;;;;;2.63;0.50;;;25.90;90.80;;;;;;2588560;46;19942;31
2022/07/07 10:26:51;;;;;;;4.18;0.75;;;25.90;90.70;;;;;;2584783;54;21143;31
2022/07/07 10:29:43;;;;;;;2.22;0.63;;;25.70;90.60;;;;;;2584044;54;20037;31
2022/07/07 10:32:18;;;;;;;1.60;0.50;;;25.80;92.20;;;;;;2604051;46;20033;31
2022/07/07 10:34:55;;;;;;;4.10;0.50;;;25.70;91.30;;;;;;2604172;46;21149;31
2022/07/07 10:37:30;;;;;;;3.40;0.50;;;25.70;91.60;;;;;;2585354;54;21272;31
2022/07/07 10:40:06;;;;;;;3.63;0.60;;;25.60;91.80;;;;;;2584674;54;20061;31
2022/07/07 10:42:53;;;;;;;5.88;0.90;;;25.40;92.10;;;;;;2584688;54;22082;31
2022/07/07 10:45:29;;;;;;;6.30;0.60;;;25.20;91.70;;;;;;2585814;54;20033;31
2022/07/07 10:48:10;;;;;;;2.15;0.50;;;25.30;92.00;;;;;;2585273;54;20053;31
2022/07/07 10:50:51;;;;;;;5.20;0.60;;;25.30;91.40;;;;;;2702081;39;21101;31
2022/07/07 10:53:32;;;;;;;1.90;0.43;;;25.30;92.80;;;;;;2585264;54;20226;31
2022/07/07 10:56:09;;;;;;;3.40;0.60;;;25.30;93.10;;;;;;2585386;54;20127;31
2022/07/07 10:59:01;;;;;;;5.15;0.40;;;25.20;93.10;;;;;;2585196;54;20827;31
2022/07/07 11:01:42;;;;;;;2.90;0.60;;;25.00;93.00;;;;;;2585368;54;20779;31
2022/07/07 11:04:43;;;;;;;5.37;0.60;;;24.70;93.60;;;;;;2603748;46;20882;31
2022/07/07 11:07:24;;;;;;;3.45;0.40;;;24.50;93.80;;;;;;2585007;54;21507;31
2022/07/07 11:09:59;;;;;;;2.05;0.50;;;24.60;94.00;;;;;;2585378;54;20908;31
2022/07/07 11:12:37;;;;;;;4.50;0.77;;;24.60;93.90;;;;;;2682978;39;21788;31
2022/07/07 11:15:39;;;;;;;0.80;0.47;;;24.60;93.70;;;;;;2584342;54;20977;31
2022/07/07 11:18:15;;;;;;;1.58;0.45;;;24.60;93.80;;;;;;2585149;54;20652;31
2022/07/07 11:21:00;;;;;;;1.90;0.40;;;24.70;94.30;;;;;;2594955;46;21132;31
2022/07/07 11:23:48;;;;;;;4.05;0.70;;;24.60;93.00;;;;;;2585524;54;21696;31
2022/07/07 11:26:23;;;;;;;2.05;0.60;;;24.60;93.60;;;;;;2585516;54;22498;31
2022/07/07 11:28:58;;;;;;;5.15;0.80;;;24.50;93.60;;;;;;2585211;54;21109;31
2022/07/07 11:31:36;;;;;;;3.88;0.73;;;24.50;93.10;;;;;;2585232;54;20831;31
2022/07/07 11:34:09;;;;;;;1.95;0.70;;;24.50;94.00;;;;;;2683322;39;22202;31
2022/07/07 11:36:55;;;;;;;5.50;0.70;;;24.60;94.10;;;;;;2585367;54;20895;31
2022/07/07 11:39:42;;;;;;;1.93;0.70;;;24.70;94.30;;;;;;2585245;54;20046;31
2022/07/07 11:42:16;;;;;;;6.63;1.08;;;24.70;93.90;;;;;;2585371;54;20026;31
2022/07/07 11:44:51;;;;;;;3.50;0.73;;;24.80;94.30;;;;;;2584495;54;20034;31
2022/07/07 11:47:28;;;;;;;3.63;0.60;;;24.70;94.10;;;;;;2585128;54;20593;31
2022/07/07 11:50:03;;;;;;;2.75;0.70;;;24.70;94.00;;;;;;2585117;54;20890;31
2022/07/07 11:52:40;;;;;;;2.35;0.70;;;24.80;94.10;;;;;;2585317;54;20027;31
2022/07/07 11:55:19;;;;;;;3.35;0.70;;;24.80;94.40;;;;;;2603815;46;20051;31
2022/07/07 11:57:55;;;;;;;2.50;0.50;;;24.90;93.80;;;;;;2585421;54;21238;31
2022/07/07 12:00:30;;;;;;;2.90;0.60;;;24.90;93.90;;;;;;2585382;54;20030;31
2022/07/07 12:03:06;;;;;;;4.18;0.63;;;24.90;93.60;;;;;;2683277;39;21059;31
2022/07/07 12:05:43;;;;;;;3.90;0.80;;;25.00;94.00;;;;;;2585082;54;20097;31
2022/07/07 12:08:17;;;;;;;3.00;0.70;;;25.10;93.50;;;;;;2585337;54;20058;31
2022/07/07 12:10:55;;;;;;;3.47;0.70;;;25.10;93.50;;;;;;2585033;54;20276;31
2022/07/07 12:13:31;;;;;;;2.45;0.80;;;25.00;93.80;;;;;;2585349;54;21899;31
2022/07/07 12:16:06;;;;;;;2.73;0.57;;;25.00;93.80;;;;;;2585015;54;20039;31
2022/07/07 12:18:42;;;;;;;1.00;0.35;;;24.80;93.60;;;;;;2683411;39;20469;31
2022/07/07 12:21:26;;;;;;;3.35;0.60;;;24.80;94.50;;;;;;2585098;54;20914;31
2022/07/07 12:24:01;;;;;;;3.95;0.60;;;24.80;94.20;;;;;;2585932;54;20954;31
2022/07/07 12:26:47;;;;;;;5.05;0.40;;;24.80;93.20;;;;;;2585074;54;20052;31
2022/07/07 12:29:19;;;;;;;2.33;0.57;;;24.80;93.60;;;;;;2702408;39;22334;31
2022/07/07 12:31:53;;;;;;;2.63;0.73;;;24.80;93.20;;;;;;2585848;54;20699;31
2022/07/07 12:34:31;;;;;;;1.60;0.40;;;24.90;92.90;;;;;;2585393;54;20093;31
2022/07/07 12:37:05;;;;;;;2.53;0.50;;;24.90;92.60;;;;;;2585979;54;20811;31
2022/07/07 12:39:44;;;;;;;1.40;0.60;;;24.90;93.20;;;;;;2604343;46;20931;31
2022/07/07 12:42:29;;;;;;;4.82;0.65;;;24.90;92.60;;;;;;2585835;54;20117;31
2022/07/07 12:45:11;;;;;;;0.98;0.57;;;24.90;92.60;;;;;;2585910;54;20938;31
2022/07/07 12:47:50;;;;;;;2.47;0.60;;;24.90;92.80;;;;;;2585835;54;20031;31
2022/07/07 12:50:25;;;;;;;0.80;0.20;;;25.00;93.30;;;;;;2585632;54;20030;31
2022/07/07 12:53:00;;;;;;;2.90;0.40;;;25.00;92.50;;;;;;2604296;46;21175;31
2022/07/07 12:55:38;;;;;;;1.92;0.32;;;25.00;92.70;;;;;;2585878;54;20793;31
2022/07/07 12:58:30;;;;;;;1.55;0.30;;;25.00;93.10;;;;;;2585625;54;20042;31
2022/07/07 13:01:10;;;;;;;1.70;0.50;;;24.90;93.40;;;;;;2702377;39;21284;31
2022/07/07 13:03:54;;;;;;;2.63;0.25;;;24.90;92.70;;;;;;2585648;54;20909;31
2022/07/07 13:06:28;;;;;;;0.80;0.28;;;24.90;93.00;;;;;;2585743;54;21035;31
2022/07/07 13:09:10;;;;;;;5.03;0.75;;;24.90;93.00;;;;;;2585627;54;20030;31
2022/07/07 13:12:12;;;;;;;1.50;0.20;;;24.90;92.80;;;;;;2585718;54;20798;31
2022/07/07 13:14:49;;;;;;;1.98;0.40;;;24.90;92.50;;;;;;2584991;54;20065;31
2022/07/07 13:17:25;;;;;;;0.63;0.30;;;24.80;93.00;;;;;;2585961;54;21003;31
2022/07/07 13:20:03;;;;;;;2.20;0.53;;;24.80;93.30;;;;;;2585519;54;20973;31
2022/07/07 13:22:38;;;;;;;2.85;0.40;;;24.80;93.80;;;;;;2585019;54;20030;31
2022/07/07 13:25:13;;;;;;;3.73;0.20;;;24.80;93.80;;;;;;2603860;46;20061;31
2022/07/07 13:27:47;;;;;;;1.87;0.40;;;24.90;93.70;;;;;;2585061;54;20250;31
2022/07/07 13:30:23;;;;;;;3.80;0.40;;;24.90;93.40;;;;;;2582623;54;20954;31
2022/07/07 13:32:57;;;;;;;3.92;0.57;;;24.80;93.80;;;;;;2595732;46;20891;31
2022/07/07 13:35:36;;;;;;;1.75;0.40;;;24.80;94.10;;;;;;2585505;54;20963;31
2022/07/07 13:38:10;;;;;;;1.27;0.35;;;24.60;93.90;;;;;;2585901;54;20858;31
2022/07/07 13:40:45;;;;;;;1.50;0.35;;;24.60;94.70;;;;;;2585823;54;20027;31
2022/07/07 13:43:24;;;;;;;3.00;0.50;;;24.60;93.80;;;;;;2595559;46;20808;31
2022/07/07 13:46:02;;;;;;;2.65;0.40;;;24.60;93.20;;;;;;2584492;54;20035;31
2022/07/07 13:48:38;;;;;;;2.67;0.35;;;24.60;93.90;;;;;;2604064;46;21444;31
2022/07/07 13:51:13;;;;;;;1.25;0.45;;;24.60;93.70;;;;;;2585553;54;20985;31
2022/07/07 13:53:59;;;;;;;2.00;0.50;;;24.50;94.20;;;;;;2683716;39;21050;31
2022/07/07 13:56:50;;;;;;;2.38;0.43;;;24.40;94.80;;;;;;2701520;39;21930;31